Burns Harbor — WDB4745 — position and weather

sailwx.info

Track history (hours):
 
Tides and Currents Weather Stations Pressure Air Temp Water Temp Dewpoint Dewpoint Depression Visibility Wind Speed Wind Dir Waves Ship Positions

Burns Harbor

Owner: ISG Burns Harbor Inc, Burns Harbor, IN. More information available from US FCC via Universal Licensing System and Coast Guard Vessel Documentation Center.

Last reported at 2017-Dec-11 13:07 UTC. Time now 2017-Dec-12 14:23 UTC.
Position N 45°52' W 084°08'.

Length 330 m; draft 7.2 m.

Type: Cargo ship. MMSI: 366901880.

Date/timePositionNaut miles runAvg speedWind from/ knotsBaromVisibWave heightAir tempDewpointWater temp
2017-Dec-11 13:07N 45°52' W 084°08'112.4
2017-Dec-11 13:00N 45°52' W 084°10'612.4
2017-Dec-11 12:30N 45°52' W 084°19'612.4
2017-Dec-11 12:00N 45°51' W 084°28'612.2
2017-Dec-11 11:31N 45°51' W 084°37'611.5
2017-Dec-11 11:00N 45°49' W 084°45'611.9
2017-Dec-11 10:30N 45°49' W 084°53'612.3
2017-Dec-11 10:00N 45°50' W 085°02'5 9.7
2017-Dec-11 09:30N 45°48' W 085°09'5 9.9
2017-Dec-11 09:00N 45°44' W 085°11'612.6
2017-Dec-11 08:30N 45°39' W 085°16'612.5
2017-Dec-11 08:00N 45°34' W 085°22'612.6
2017-Dec-11 07:30N 45°29' W 085°27'612.6
2017-Dec-11 07:01N 45°24' W 085°32'612.6
2017-Dec-11 06:30N 45°18' W 085°38'612.5
2017-Dec-11 06:00N 45°13' W 085°43'612.6
2017-Dec-11 05:30N 45°08' W 085°48'  
2017-Dec-07 15:03N 45°41' W 086°24'110.8
2017-Dec-07 14:57N 45°41' W 086°23'511.1
2017-Dec-07 14:30N 45°45' W 086°19'511.1
2017-Dec-07 14:00N 45°50' W 086°14'5 9.1
2017-Dec-07 13:30N 45°53' W 086°09'5 9.2
2017-Dec-07 13:00N 45°53' W 086°02'5 9.3
2017-Dec-07 12:30N 45°53' W 085°56'5 9.5
2017-Dec-07 12:00N 45°53' W 085°49'5 9.7
2017-Dec-07 11:30N 45°53' W 085°42'5 9.6
2017-Dec-07 11:00N 45°53' W 085°35'5 9.4
2017-Dec-07 10:30N 45°54' W 085°28'5 9.7
2017-Dec-07 10:00N 45°53' W 085°21'5 9.9
2017-Dec-07 09:30N 45°52' W 085°14'510.1
2017-Dec-07 09:00N 45°52' W 085°07'510.3
2017-Dec-07 08:30N 45°51' W 084°60'510.0
2017-Dec-07 08:00N 45°50' W 084°53'510.4
2017-Dec-07 07:30N 45°49' W 084°45'5 9.5
2017-Dec-07 07:00N 45°50' W 084°39'510.0
2017-Dec-07 06:30N 45°52' W 084°32'5 9.9
2017-Dec-07 06:00N 45°52' W 084°25'5 9.7
2017-Dec-07 05:30N 45°53' W 084°18'5 9.4
2017-Dec-07 05:00N 45°53' W 084°11'4 8.9
2017-Dec-07 04:30N 45°54' W 084°05'4 9.0
2017-Dec-07 04:00N 45°55' W 083°59'4 8.0
2017-Dec-07 03:30N 45°57' W 083°54'6 9.5
2017-Dec-07 02:54N 46°02' W 083°56'4 9.8
2017-Dec-07 02:27N 46°05' W 084°01'10 7.9
2017-Dec-07 01:08N 46°13' W 084°10'1 7.0
2017-Dec-07 01:00N 46°14' W 084°11'  
2017-Dec-04 10:30N 46°42' W 092°01'0 0.0
2017-Dec-04 10:00N 46°42' W 092°01'0 0.0
2017-Dec-04 09:30N 46°42' W 092°01'0 0.0
2017-Dec-04 09:00N 46°42' W 092°01'0 0.0
2017-Dec-04 08:30N 46°42' W 092°01'0 0.0
2017-Dec-04 08:00N 46°42' W 092°01'0 0.0
2017-Dec-04 07:30N 46°42' W 092°01'0 0.0
2017-Dec-04 07:00N 46°42' W 092°01'0 0.0
2017-Dec-04 06:30N 46°42' W 092°01'0 0.0
2017-Dec-04 06:00N 46°42' W 092°01'0 0.0
2017-Dec-04 05:30N 46°42' W 092°01'0 0.0
2017-Dec-04 05:00N 46°42' W 092°01'0 0.0
2017-Dec-04 04:30N 46°42' W 092°01'0 0.0
2017-Dec-04 04:00N 46°42' W 092°01'0 0.0
2017-Dec-04 03:30N 46°42' W 092°01'0 0.0
2017-Dec-04 03:00N 46°42' W 092°01'0 0.0
2017-Dec-04 02:30N 46°42' W 092°01'0 0.2
2017-Dec-04 02:00N 46°42' W 092°01'2 3.8
2017-Dec-04 01:30N 46°43' W 091°59'1112.3
2017-Dec-04 00:36N 46°49' W 091°45'112.8
2017-Dec-04 00:30N 46°50' W 091°44'612.8
2017-Dec-04 00:00N 46°52' W 091°35'612.8
2017-Dec-03 23:30N 46°55' W 091°26'301 8.5
2017-Dec-02 12:17N 45°52' W 084°20'412.6
2017-Dec-02 12:00N 45°51' W 084°25'812.4
2017-Dec-02 11:20N 45°51' W 084°37'411.9
2017-Dec-02 11:00N 45°49' W 084°42'611.7
2017-Dec-02 10:30N 45°49' W 084°50'612.2
2017-Dec-02 10:00N 45°50' W 084°59'611.6
2017-Dec-02 09:30N 45°50' W 085°07'5 9.9
2017-Dec-02 09:00N 45°45' W 085°10'612.8
2017-Dec-02 08:30N 45°40' W 085°15'712.9
2017-Dec-02 08:00N 45°35' W 085°21'612.9
2017-Dec-02 07:30N 45°30' W 085°26'612.9
2017-Dec-02 07:00N 45°24' W 085°32'612.9
2017-Dec-02 06:30N 45°19' W 085°37'612.9
2017-Dec-02 06:00N 45°14' W 085°43'  
Track history (hours):
 
Tides and Currents Weather Stations Pressure Air Temp Water Temp Dewpoint Dewpoint Depression Visibility Wind Speed Wind Dir Waves Ship Positions

Burns Harbor

Owner: ISG Burns Harbor Inc, Burns Harbor, IN. More information available from US FCC via Universal Licensing System and Coast Guard Vessel Documentation Center.

Last reported at 2017-Dec-11 13:07 UTC. Time now 2017-Dec-12 14:23 UTC.
Position N 45°52' W 084°08'.

Length 330 m; draft 7.2 m.

Type: Cargo ship. MMSI: 366901880.

Date/timePositionNaut miles runAvg speedWind from/ knotsBaromVisibWave heightAir tempDewpointWater temp
2017-Dec-11 13:07N 45°52' W 084°08'112.4
2017-Dec-11 13:00N 45°52' W 084°10'612.4
2017-Dec-11 12:30N 45°52' W 084°19'612.4
2017-Dec-11 12:00N 45°51' W 084°28'612.2
2017-Dec-11 11:31N 45°51' W 084°37'611.5
2017-Dec-11 11:00N 45°49' W 084°45'611.9
2017-Dec-11 10:30N 45°49' W 084°53'612.3
2017-Dec-11 10:00N 45°50' W 085°02'5 9.7
2017-Dec-11 09:30N 45°48' W 085°09'5 9.9
2017-Dec-11 09:00N 45°44' W 085°11'612.6
2017-Dec-11 08:30N 45°39' W 085°16'612.5
2017-Dec-11 08:00N 45°34' W 085°22'612.6
2017-Dec-11 07:30N 45°29' W 085°27'612.6
2017-Dec-11 07:01N 45°24' W 085°32'612.6
2017-Dec-11 06:30N 45°18' W 085°38'612.5
2017-Dec-11 06:00N 45°13' W 085°43'612.6
2017-Dec-11 05:30N 45°08' W 085°48'  
2017-Dec-07 15:03N 45°41' W 086°24'110.8
2017-Dec-07 14:57N 45°41' W 086°23'511.1
2017-Dec-07 14:30N 45°45' W 086°19'511.1
2017-Dec-07 14:00N 45°50' W 086°14'5 9.1
2017-Dec-07 13:30N 45°53' W 086°09'5 9.2
2017-Dec-07 13:00N 45°53' W 086°02'5 9.3
2017-Dec-07 12:30N 45°53' W 085°56'5 9.5
2017-Dec-07 12:00N 45°53' W 085°49'5 9.7
2017-Dec-07 11:30N 45°53' W 085°42'5 9.6
2017-Dec-07 11:00N 45°53' W 085°35'5 9.4
2017-Dec-07 10:30N 45°54' W 085°28'5 9.7
2017-Dec-07 10:00N 45°53' W 085°21'5 9.9
2017-Dec-07 09:30N 45°52' W 085°14'510.1
2017-Dec-07 09:00N 45°52' W 085°07'510.3
2017-Dec-07 08:30N 45°51' W 084°60'510.0
2017-Dec-07 08:00N 45°50' W 084°53'510.4
2017-Dec-07 07:30N 45°49' W 084°45'5 9.5
2017-Dec-07 07:00N 45°50' W 084°39'510.0
2017-Dec-07 06:30N 45°52' W 084°32'5 9.9
2017-Dec-07 06:00N 45°52' W 084°25'5 9.7
2017-Dec-07 05:30N 45°53' W 084°18'5 9.4
2017-Dec-07 05:00N 45°53' W 084°11'4 8.9
2017-Dec-07 04:30N 45°54' W 084°05'4 9.0
2017-Dec-07 04:00N 45°55' W 083°59'4 8.0
2017-Dec-07 03:30N 45°57' W 083°54'6 9.5
2017-Dec-07 02:54N 46°02' W 083°56'4 9.8
2017-Dec-07 02:27N 46°05' W 084°01'10 7.9
2017-Dec-07 01:08N 46°13' W 084°10'1 7.0
2017-Dec-07 01:00N 46°14' W 084°11'  
2017-Dec-04 10:30N 46°42' W 092°01'0 0.0
2017-Dec-04 10:00N 46°42' W 092°01'0 0.0
2017-Dec-04 09:30N 46°42' W 092°01'0 0.0
2017-Dec-04 09:00N 46°42' W 092°01'0 0.0
2017-Dec-04 08:30N 46°42' W 092°01'0 0.0
2017-Dec-04 08:00N 46°42' W 092°01'0 0.0
2017-Dec-04 07:30N 46°42' W 092°01'0 0.0
2017-Dec-04 07:00N 46°42' W 092°01'0 0.0
2017-Dec-04 06:30N 46°42' W 092°01'0 0.0
2017-Dec-04 06:00N 46°42' W 092°01'0 0.0
2017-Dec-04 05:30N 46°42' W 092°01'0 0.0
2017-Dec-04 05:00N 46°42' W 092°01'0 0.0
2017-Dec-04 04:30N 46°42' W 092°01'0 0.0
2017-Dec-04 04:00N 46°42' W 092°01'0 0.0
2017-Dec-04 03:30N 46°42' W 092°01'0 0.0
2017-Dec-04 03:00N 46°42' W 092°01'0 0.0
2017-Dec-04 02:30N 46°42' W 092°01'0 0.2
2017-Dec-04 02:00N 46°42' W 092°01'2 3.8
2017-Dec-04 01:30N 46°43' W 091°59'1112.3
2017-Dec-04 00:36N 46°49' W 091°45'112.8
2017-Dec-04 00:30N 46°50' W 091°44'612.8
2017-Dec-04 00:00N 46°52' W 091°35'612.8
2017-Dec-03 23:30N 46°55' W 091°26'301 8.5
2017-Dec-02 12:17N 45°52' W 084°20'412.6
2017-Dec-02 12:00N 45°51' W 084°25'812.4
2017-Dec-02 11:20N 45°51' W 084°37'411.9
2017-Dec-02 11:00N 45°49' W 084°42'611.7
2017-Dec-02 10:30N 45°49' W 084°50'612.2
2017-Dec-02 10:00N 45°50' W 084°59'611.6
2017-Dec-02 09:30N 45°50' W 085°07'5 9.9
2017-Dec-02 09:00N 45°45' W 085°10'612.8
2017-Dec-02 08:30N 45°40' W 085°15'712.9
2017-Dec-02 08:00N 45°35' W 085°21'612.9
2017-Dec-02 07:30N 45°30' W 085°26'612.9
2017-Dec-02 07:00N 45°24' W 085°32'612.9
2017-Dec-02 06:30N 45°19' W 085°37'612.9
2017-Dec-02 06:00N 45°14' W 085°43'  

Dump ship's entire track history